NCAR-RAP Real-Time Weather Data

Output produced by METARs form (06 May 2021  17:01 UTC)
found at http://weather.rap.ucar.edu/surface/
 
KUGN 061555Z 05006KT 7SM -RA BKN007 BKN037 OVC044 06/05 A3011 RMK AO2 SLP199 P0005 T00610050
KUGN 061510Z COR 04008KT 4SM -RA BR BKN007 BKN039 OVC050 06/04 A3011 RMK AO2 P0002 T00610044
KUGN 061455Z COR 04006KT 5SM -RA BR BKN005 OVC041 06/04 A3011 RMK AO2 SLP202 P0004 60009 T00610044 53004
KUGN 061425Z 06009KT 5SM -RA BR FEW008 OVC042 06/04 A3011 RMK AO2 P0002 T00610044
KUGN 061355Z 04006KT 6SM -RA BR OVC043 07/05 A3011 RMK AO2 RAB05 SLP201 P0003 T00670050
KUGN 061255Z 04004KT 10SM OVC045 07/06 A3010 RMK AO2 RAE53 SLP198 P0002 T00720056
KUGN 061155Z 06006KT 4SM -RA BR OVC040 07/06 A3010 RMK AO2 SLP198 P0007 60008 7//// T00720056 10083 20072 55000
KUGN 061055Z 35005KT 10SM -RA OVC046 07/06 A3010 RMK AO2 SLP196 P0001 T00720056
KUGN 060955Z AUTO 00000KT 10SM -RA OVC049 07/05 A3010 RMK AO2 RAE10B43 SLP194 P0000 T00720050 TSNO
KUGN 060855Z AUTO 00000KT 10SM -RA OVC070 07/04 A3010 RMK AO2 RAB0759 SLP197 P0000 60000 T00720039 58010 TSNO
KUGN 060755Z AUTO 00000KT 10SM OVC055 08/03 A3012 RMK AO2 SLP203 T00780028 TSNO
KUGN 060655Z AUTO 00000KT 10SM BKN060 OVC080 07/02 A3012 RMK AO2 SLP202 T00720022 TSNO
KUGN 060555Z AUTO 00000KT 10SM FEW060 BKN085 OVC110 07/03 A3013 RMK AO2 SLP207 T00720028 10089 20067 58004 TSNO
KUGN 060455Z AUTO 20004KT 10SM BKN055 BKN070 OVC090 08/01 A3014 RMK AO2 SLP208 T00830006 401220011 TSNO
KUGN 060355Z AUTO 18004KT 10SM FEW075 08/01 A3015 RMK AO2 SLP213 T00830011 TSNO
KUGN 060255Z AUTO 15004KT 10SM CLR 08/01 A3015 RMK AO2 SLP211 T00780011 51004 TSNO